KDAN

Danville Regional Airport

Danville, Virginia, USA
METAR KDAN 151853Z AUTO 27004KT 10SM SCT025 02/M05 A2995 RMK AO2 SLP140 T00221050
Observed Flight Rules
Dec-15 @ 18:53 UTC (40 minutes ago) Visual Flight Rules
Wind Visibility Clouds
270° at 4 knots 10 miles
  • Scattered at 2,500' AGL
Temperatures Readings
Current 2°C / 36°F
Dewpoint -5°C / 23°F
Humidity 60%
Altimeter 29.95" Hg
Pressure 1014 hPa
Elevation 175
METAR KDAN 151853Z AUTO 27004KT 10SM SCT025 02/M05 A2995 RMK AO2 SLP140 T00221050
Observed Flight Rules
Dec-15 @ 18:53 UTC
(40 minutes ago)
VFR
Wind Visibility
270° at 4 knots 10 miles
Clouds
  • Scattered at 2,500' AGL
Temperature Dewpoint
2°C / 36°F -5°C / 23°F
Humidity Altimeter Pressure
60% 29.95" Hg 1014 hPa